Time;durP1;ratioP1;P1;durP2;ratioP2;P2;SDS_P1;SDS_P2;PMS_P1;PMS_P2;Temp;Humidity;BMP_temperature;BMP_pressure;BME280_temperature;BME280_humidity;BME280_pressure;Samples;Min_cycle;Max_cycle;Signal;HPM_P1;HPM_P2
2023/04/18 00:01:50;;;;;;;;;;;;;;;;;;4983575;28;89035;-65
2023/04/18 00:04:16;;;;;;;;;;;;;;;;;;4972421;28;90653;-63
2023/04/18 00:06:42;;;;;;;;;;;;;;;;;;4980415;28;89648;-64
2023/04/18 00:09:07;;;;;;;;;;;;;;;;;;4978952;28;89002;-66
2023/04/18 00:11:33;;;;;;;;;;;;;;;;;;4983507;28;89499;-64
2023/04/18 00:13:58;;;;;;;;;;;;;;;;;;4975376;28;89214;-65
2023/04/18 00:16:23;;;;;;;;;;;;;;;;;;4982985;28;89249;-64
2023/04/18 00:18:50;;;;;;;;;;;;;;;;;;4985945;28;89741;-66
2023/04/18 00:21:16;;;;;;;;;;;;;;;;;;4977142;28;89848;-66
2023/04/18 00:23:42;;;;;;;;;;;;;;;;;;4984164;28;90580;-63
2023/04/18 00:26:07;;;;;;;;;;;;;;;;;;4982235;28;89980;-64
2023/04/18 00:28:32;;;;;;;;;;;;;;;;;;4980805;28;88986;-63
2023/04/18 00:30:57;;;;;;;;;;;;;;;;;;4976563;28;89508;-62
2023/04/18 00:33:22;;;;;;;;;;;;;;;;;;4977963;28;89885;-62
2023/04/18 00:35:48;;;;;;;;;;;;;;;;;;4981159;28;89490;-63
2023/04/18 00:38:13;;;;;;;;;;;;;;;;;;4971559;28;89539;-66
2023/04/18 00:40:38;;;;;;;;;;;;;;;;;;4988237;28;89651;-65
2023/04/18 00:43:06;;;;;;;;;;;;;;;;;;4974109;28;89497;-64
2023/04/18 00:45:31;;;;;;;;;;;;;;;;;;4979826;28;89302;-63
2023/04/18 00:47:56;;;;;;;;;;;;;;;;;;4977556;28;89500;-67
2023/04/18 00:50:22;;;;;;;;;;;;;;;;;;4984553;28;89284;-65
2023/04/18 00:52:47;;;;;;;;;;;;;;;;;;4973859;28;89291;-63
2023/04/18 00:55:13;;;;;;;;;;;;;;;;;;4977919;28;89141;-66
2023/04/18 00:57:38;;;;;;;;;;;;;;;;;;4977782;28;89402;-64
2023/04/18 01:00:07;;;;;;;;;;;;;;;;;;4985803;28;89166;-63
2023/04/18 01:02:32;;;;;;;;;;;;;;;;;;4979996;28;88990;-63
2023/04/18 01:04:58;;;;;;;;;;;;;;;;;;4975993;28;89312;-63
2023/04/18 01:07:24;;;;;;;;;;;;;;;;;;4977430;28;89498;-63
2023/04/18 01:09:49;;;;;;;;;;;;;;;;;;4985200;28;89553;-65
2023/04/18 01:12:15;;;;;;;;;;;;;;;;;;4977286;28;89606;-63
2023/04/18 01:14:41;;;;;;;;;;;;;;;;;;4977808;28;89234;-64
2023/04/18 01:17:09;;;;;;;;;;;;;;;;;;4974349;28;90733;-64
2023/04/18 01:19:45;;;;;;;;;;;;;;;;;;4977448;28;90181;-66
2023/04/18 01:22:12;;;;;;;;;;;;;;;;;;4986255;28;88999;-62
2023/04/18 01:24:38;;;;;;;;;;;;;;;;;;4973327;28;89558;-62
2023/04/18 01:27:03;;;;;;;;;;;;;;;;;;4975066;28;89523;-64
2023/04/18 01:29:28;;;;;;;;;;;;;;;;;;4983064;28;89639;-62
2023/04/18 01:31:53;;;;;;;;;;;;;;;;;;4976273;28;89601;-66
2023/04/18 01:34:19;;;;;;;;;;;;;;;;;;4971541;28;89017;-63
2023/04/18 01:36:44;;;;;;;;;;;;;;;;;;4977761;28;89848;-63
2023/04/18 01:39:11;;;;;;;;;;;;;;;;;;4976256;28;90288;-65
2023/04/18 01:41:36;;;;;;;;;;;;;;;;;;4977628;28;89095;-65
2023/04/18 01:44:01;;;;;;;;;;;;;;;;;;4975884;28;89452;-63
2023/04/18 01:46:27;;;;;;;;;;;;;;;;;;4975260;28;89487;-62
2023/04/18 01:48:52;;;;;;;;;;;;;;;;;;4980225;28;90109;-62
2023/04/18 01:51:17;;;;;;;;;;;;;;;;;;4985849;28;90246;-65
2023/04/18 01:53:42;;;;;;;;;;;;;;;;;;4977704;28;89665;-63
2023/04/18 01:56:09;;;;;;;;;;;;;;;;;;4980330;28;90747;-65
2023/04/18 01:58:34;;;;;;;;;;;;;;;;;;4981867;28;90111;-66
2023/04/18 02:00:59;;;;;;;;;;;;;;;;;;4983757;28;89543;-65
2023/04/18 02:03:25;;;;;;;;;;;;;;;;;;4976334;28;89945;-66
2023/04/18 02:05:51;;;;;;;;;;;;;;;;;;4989050;28;90092;-62
2023/04/18 02:08:16;;;;;;;;;;;;;;;;;;4983564;28;90638;-64
2023/04/18 02:10:41;;;;;;;;;;;;;;;;;;4985947;28;89256;-63
2023/04/18 02:13:07;;;;;;;;;;;;;;;;;;4984875;28;89141;-66
2023/04/18 02:15:32;;;;;;;;;;;;;;;;;;4987579;28;90900;-64
2023/04/18 02:18:01;;;;;;;;;;;;;;;;;;4997945;28;91902;-63
2023/04/18 02:20:27;;;;;;;;;;;;;;;;;;4985481;28;89539;-65
2023/04/18 02:22:53;;;;;;;;;;;;;;;;;;4976166;28;89503;-65
2023/04/18 02:25:18;;;;;;;;;;;;;;;;;;4979957;28;89314;-62
2023/04/18 02:27:43;;;;;;;;;;;;;;;;;;4988550;28;89827;-66
2023/04/18 02:30:09;;;;;;;;;;;;;;;;;;4978470;28;90230;-64
2023/04/18 02:32:34;;;;;;;;;;;;;;;;;;4986108;28;89256;-63
2023/04/18 02:34:59;;;;;;;;;;;;;;;;;;4984453;28;90480;-63
2023/04/18 02:37:24;;;;;;;;;;;;;;;;;;4984297;28;90181;-64
2023/04/18 02:39:50;;;;;;;;;;;;;;;;;;4978851;28;91025;-63
2023/04/18 02:42:15;;;;;;;;;;;;;;;;;;4986608;28;89956;-65
2023/04/18 02:44:40;;;;;;;;;;;;;;;;;;4978931;28;89495;-62
2023/04/18 02:47:05;;;;;;;;;;;;;;;;;;4983150;28;89090;-64
2023/04/18 02:49:31;;;;;;;;;;;;;;;;;;4979323;28;90840;-63
2023/04/18 02:51:56;;;;;;;;;;;;;;;;;;4987180;28;89448;-63
2023/04/18 02:54:23;;;;;;;;;;;;;;;;;;4974846;28;89989;-64
2023/04/18 02:56:48;;;;;;;;;;;;;;;;;;4979606;28;89218;-63
2023/04/18 02:59:13;;;;;;;;;;;;;;;;;;4985754;28;90378;-65
2023/04/18 03:01:39;;;;;;;;;;;;;;;;;;4980294;28;89810;-66
2023/04/18 03:04:04;;;;;;;;;;;;;;;;;;4984880;28;90195;-66
2023/04/18 03:06:30;;;;;;;;;;;;;;;;;;4979135;28;89066;-65
2023/04/18 03:08:55;;;;;;;;;;;;;;;;;;4983564;28;90717;-64
2023/04/18 03:11:21;;;;;;;;;;;;;;;;;;4977666;28;90443;-62
2023/04/18 03:13:46;;;;;;;;;;;;;;;;;;4978995;28;90908;-62
2023/04/18 03:16:12;;;;;;;;;;;;;;;;;;4977000;28;91138;-66
2023/04/18 03:18:37;;;;;;;;;;;;;;;;;;4979380;28;89087;-64
2023/04/18 03:21:02;;;;;;;;;;;;;;;;;;4981243;28;89760;-62
2023/04/18 03:23:27;;;;;;;;;;;;;;;;;;4985899;28;89841;-66
2023/04/18 03:25:53;;;;;;;;;;;;;;;;;;4977551;28;89633;-63
2023/04/18 03:28:18;;;;;;;;;;;;;;;;;;4980154;28;89584;-66
2023/04/18 03:30:43;;;;;;;;;;;;;;;;;;4981870;28;89380;-63
2023/04/18 03:33:09;;;;;;;;;;;;;;;;;;4978589;28;90726;-64
2023/04/18 03:35:34;;;;;;;;;;;;;;;;;;4986217;28;90252;-62
2023/04/18 03:37:59;;;;;;;;;;;;;;;;;;4982602;28;89200;-62
2023/04/18 03:40:24;;;;;;;;;;;;;;;;;;4978914;28;89512;-64
2023/04/18 03:42:50;;;;;;;;;;;;;;;;;;4981686;28;89448;-62
2023/04/18 03:45:15;;;;;;;;;;;;;;;;;;4979028;28;89437;-62
2023/04/18 03:47:40;;;;;;;;;;;;;;;;;;4982330;28;90480;-62
2023/04/18 03:50:06;;;;;;;;;;;;;;;;;;4979524;28;89730;-62
2023/04/18 03:52:31;;;;;;;;;;;;;;;;;;4984576;28;89419;-63
2023/04/18 03:54:56;;;;;;;;;;;;;;;;;;4973506;28;89193;-66
2023/04/18 03:57:21;;;;;;;;;;;;;;;;;;4975616;28;90380;-64
2023/04/18 03:59:47;;;;;;;;;;;;;;;;;;4972903;28;90072;-64
2023/04/18 04:02:12;;;;;;;;;;;;;;;;;;4976498;28;90202;-63
2023/04/18 04:04:37;;;;;;;;;;;;;;;;;;4976704;28;89838;-65
2023/04/18 04:07:03;;;;;;;;;;;;;;;;;;4978407;28;90310;-65
2023/04/18 04:09:28;;;;;;;;;;;;;;;;;;4977540;28;89890;-63
2023/04/18 04:11:53;;;;;;;;;;;;;;;;;;4975391;28;90197;-64
2023/04/18 04:14:19;;;;;;;;;;;;;;;;;;4975307;28;89676;-65
2023/04/18 04:16:44;;;;;;;;;;;;;;;;;;4971545;28;89465;-65
2023/04/18 04:19:09;;;;;;;;;;;;;;;;;;4976538;28;89587;-64
2023/04/18 04:21:35;;;;;;;;;;;;;;;;;;4976587;28;89667;-64
2023/04/18 04:24:00;;;;;;;;;;;;;;;;;;4971597;28;90602;-64
2023/04/18 04:26:26;;;;;;;;;;;;;;;;;;4977411;28;89505;-64
2023/04/18 04:28:52;;;;;;;;;;;;;;;;;;4979801;28;90246;-65
2023/04/18 04:31:17;;;;;;;;;;;;;;;;;;4975140;28;89630;-63
2023/04/18 04:33:43;;;;;;;;;;;;;;;;;;4971537;28;89467;-62
2023/04/18 04:36:09;;;;;;;;;;;;;;;;;;4978665;28;90257;-65
2023/04/18 04:38:37;;;;;;;;;;;;;;;;;;4977945;28;90719;-65
2023/04/18 04:41:02;;;;;;;;;;;;;;;;;;4970032;28;90508;-64
2023/04/18 04:43:27;;;;;;;;;;;;;;;;;;4976335;28;90281;-62
2023/04/18 04:45:53;;;;;;;;;;;;;;;;;;4977328;28;90472;-66
2023/04/18 04:48:20;;;;;;;;;;;;;;;;;;4976260;28;89449;-64
2023/04/18 04:50:55;;;;;;;;;;;;;;;;;;4972915;28;89365;-64
2023/04/18 04:53:25;;;;;;;;;;;;;;;;;;4977317;28;89587;-65
2023/04/18 04:55:50;;;;;;;;;;;;;;;;;;4982886;28;90219;-66
2023/04/18 04:58:15;;;;;;;;;;;;;;;;;;4979697;28;89109;-61
2023/04/18 05:00:41;;;;;;;;;;;;;;;;;;4974395;28;89985;-64
2023/04/18 05:03:06;;;;;;;;;;;;;;;;;;4974780;28;90560;-66
2023/04/18 05:05:32;;;;;;;;;;;;;;;;;;4981249;28;89974;-68
2023/04/18 05:07:57;;;;;;;;;;;;;;;;;;4975611;28;89431;-66
2023/04/18 05:10:22;;;;;;;;;;;;;;;;;;4977900;28;89770;-66
2023/04/18 05:12:48;;;;;;;;;;;;;;;;;;4976180;28;92483;-63
2023/04/18 05:15:14;;;;;;;;;;;;;;;;;;4974323;28;89849;-66
2023/04/18 05:17:39;;;;;;;;;;;;;;;;;;4979311;28;89207;-61
2023/04/18 05:20:04;;;;;;;;;;;;;;;;;;4975990;28;89855;-64
2023/04/18 05:22:30;;;;;;;;;;;;;;;;;;4976844;28;89928;-67
2023/04/18 05:24:55;;;;;;;;;;;;;;;;;;4980963;28;89722;-66
2023/04/18 05:27:20;;;;;;;;;;;;;;;;;;4977602;28;89197;-63
2023/04/18 05:29:46;;;;;;;;;;;;;;;;;;4981054;28;89832;-67
2023/04/18 05:32:11;;;;;;;;;;;;;;;;;;4975557;28;90042;-71
2023/04/18 05:34:37;;;;;;;;;;;;;;;;;;4974235;28;89558;-63
2023/04/18 05:37:02;;;;;;;;;;;;;;;;;;4981515;28;89119;-64
2023/04/18 05:39:27;;;;;;;;;;;;;;;;;;4980809;28;90690;-67
2023/04/18 05:41:53;;;;;;;;;;;;;;;;;;4979633;28;91077;-62
2023/04/18 05:44:18;;;;;;;;;;;;;;;;;;4978614;28;90768;-77
2023/04/18 05:46:44;;;;;;;;;;;;;;;;;;4985858;28;89219;-64
2023/04/18 05:49:09;;;;;;;;;;;;;;;;;;4978910;28;89630;-64
2023/04/18 05:51:34;;;;;;;;;;;;;;;;;;4981800;28;91468;-68
2023/04/18 05:54:00;;;;;;;;;;;;;;;;;;4977024;28;90482;-68
2023/04/18 05:56:25;;;;;;;;;;;;;;;;;;4977611;28;89190;-67
2023/04/18 05:58:50;;;;;;;;;;;;;;;;;;4974058;28;89571;-67
2023/04/18 06:01:17;;;;;;;;;;;;;;;;;;4978908;28;89592;-65
2023/04/18 06:03:42;;;;;;;;;;;;;;;;;;4976162;28;90809;-69
2023/04/18 06:06:08;;;;;;;;;;;;;;;;;;4974580;28;89916;-64
2023/04/18 06:08:33;;;;;;;;;;;;;;;;;;4979593;28;89482;-83
2023/04/18 06:10:58;;;;;;;;;;;;;;;;;;4977097;28;91028;-68
2023/04/18 06:13:23;;;;;;;;;;;;;;;;;;4977959;28;89572;-62
2023/04/18 06:15:48;;;;;;;;;;;;;;;;;;4976982;28;89618;-74
2023/04/18 06:18:14;;;;;;;;;;;;;;;;;;4976235;28;89568;-70
2023/04/18 06:20:40;;;;;;;;;;;;;;;;;;4978685;28;90409;-63
2023/04/18 06:23:07;;;;;;;;;;;;;;;;;;4983379;28;89117;-73
2023/04/18 06:25:32;;;;;;;;;;;;;;;;;;4975099;28;90381;-69
2023/04/18 06:27:57;;;;;;;;;;;;;;;;;;4986042;28;89137;-63
2023/04/18 06:30:22;;;;;;;;;;;;;;;;;;4983224;28;89601;-64
2023/04/18 06:32:47;;;;;;;;;;;;;;;;;;4977872;28;90302;-65
2023/04/18 06:35:13;;;;;;;;;;;;;;;;;;4975517;28;89422;-65
2023/04/18 06:37:41;;;;;;;;;;;;;;;;;;4982457;28;90329;-67
2023/04/18 06:40:06;;;;;;;;;;;;;;;;;;4978213;28;90204;-68
2023/04/18 06:42:32;;;;;;;;;;;;;;;;;;4977084;28;90338;-63
2023/04/18 06:44:57;;;;;;;;;;;;;;;;;;4979054;28;90529;-63
2023/04/18 06:47:22;;;;;;;;;;;;;;;;;;4981817;28;89019;-66
2023/04/18 06:49:47;;;;;;;;;;;;;;;;;;4977233;28;89615;-63
2023/04/18 06:52:13;;;;;;;;;;;;;;;;;;4974101;28;89889;-64
2023/04/18 06:54:38;;;;;;;;;;;;;;;;;;4976682;28;89204;-62
2023/04/18 06:57:03;;;;;;;;;;;;;;;;;;4979268;28;89618;-63
2023/04/18 06:59:29;;;;;;;;;;;;;;;;;;4976981;28;89883;-62
2023/04/18 07:01:54;;;;;;;;;;;;;;;;;;4979368;28;89695;-69
2023/04/18 07:04:19;;;;;;;;;;;;;;;;;;4975407;28;89681;-63
2023/04/18 07:06:45;;;;;;;;;;;;;;;;;;4981008;28;89640;-64
2023/04/18 07:09:10;;;;;;;;;;;;;;;;;;4979175;28;89601;-65
2023/04/18 07:11:35;;;;;;;;;;;;;;;;;;4975485;28;89244;-64
2023/04/18 07:14:00;;;;;;;;;;;;;;;;;;4977630;28;90671;-65
2023/04/18 07:16:26;;;;;;;;;;;;;;;;;;4972288;28;90394;-64
2023/04/18 07:18:51;;;;;;;;;;;;;;;;;;4977441;28;90157;-64
2023/04/18 07:21:17;;;;;;;;;;;;;;;;;;4979355;28;90395;-63
2023/04/18 07:23:42;;;;;;;;;;;;;;;;;;4977077;28;89444;-63
2023/04/18 07:26:08;;;;;;;;;;;;;;;;;;4976444;28;89201;-66
2023/04/18 07:28:34;;;;;;;;;;;;;;;;;;4983816;28;89816;-67
2023/04/18 07:31:00;;;;;;;;;;;;;;;;;;4977331;28;89730;-64
2023/04/18 07:33:25;;;;;;;;;;;;;;;;;;4983770;28;90878;-63
2023/04/18 07:35:51;;;;;;;;;;;;;;;;;;4979800;28;89792;-66
2023/04/18 07:38:17;;;;;;;;;;;;;;;;;;4977463;28;90194;-63
2023/04/18 07:40:43;;;;;;;;;;;;;;;;;;4978544;28;89657;-65
2023/04/18 07:43:09;;;;;;;;;;;;;;;;;;4976602;28;89468;-66
2023/04/18 07:45:37;;;;;;;;;;;;;;;;;;4975151;28;89252;-66
2023/04/18 07:48:02;;;;;;;;;;;;;;;;;;4975438;28;89919;-65
2023/04/18 07:50:27;;;;;;;;;;;;;;;;;;4968835;28;90246;-63
2023/04/18 07:52:52;;;;;;;;;;;;;;;;;;4977463;28;89417;-64
2023/04/18 07:55:18;;;;;;;;;;;;;;;;;;4980871;28;89591;-66
2023/04/18 07:57:43;;;;;;;;;;;;;;;;;;4980421;28;89639;-66
2023/04/18 08:00:09;;;;;;;;;;;;;;;;;;4978959;28;89009;-65
2023/04/18 08:02:34;;;;;;;;;;;;;;;;;;4973157;28;91446;-64
2023/04/18 08:04:59;;;;;;;;;;;;;;;;;;4976787;28;90945;-64
2023/04/18 08:07:25;;;;;;;;;;;;;;;;;;4973605;28;89327;-64
2023/04/18 08:09:50;;;;;;;;;;;;;;;;;;4981083;28;89626;-64
2023/04/18 08:12:15;;;;;;;;;;;;;;;;;;4979162;28;89067;-62
2023/04/18 08:14:40;;;;;;;;;;;;;;;;;;4976534;28;89555;-65
2023/04/18 08:17:05;;;;;;;;;;;;;;;;;;4974396;28;89421;-64
2023/04/18 08:19:31;;;;;;;;;;;;;;;;;;4978376;28;89445;-64
2023/04/18 08:22:05;;;;;;;;;;;;;;;;;;4974506;28;90071;-64
2023/04/18 08:24:31;;;;;;;;;;;;;;;;;;4970137;28;89558;-65
2023/04/18 08:26:56;;;;;;;;;;;;;;;;;;4978700;28;89588;-66
2023/04/18 08:29:21;;;;;;;;;;;;;;;;;;4976559;28;90595;-63
2023/04/18 08:31:47;;;;;;;;;;;;;;;;;;4978280;28;89361;-63
2023/04/18 08:34:12;;;;;;;;;;;;;;;;;;4972344;28;89472;-64
2023/04/18 08:36:37;;;;;;;;;;;;;;;;;;4985710;28;89704;-67
2023/04/18 08:39:03;;;;;;;;;;;;;;;;;;4972290;28;89014;-66
2023/04/18 08:41:29;;;;;;;;;;;;;;;;;;4977853;28;89746;-64
2023/04/18 08:43:54;;;;;;;;;;;;;;;;;;4977071;28;89572;-63
2023/04/18 08:46:20;;;;;;;;;;;;;;;;;;4970010;28;90637;-63
2023/04/18 08:48:47;;;;;;;;;;;;;;;;;;4978689;28;89935;-62
2023/04/18 08:51:13;;;;;;;;;;;;;;;;;;4975740;28;89242;-63
2023/04/18 08:53:38;;;;;;;;;;;;;;;;;;4976835;28;89285;-65
2023/04/18 08:56:04;;;;;;;;;;;;;;;;;;4970278;28;90483;-64
2023/04/18 08:58:32;;;;;;;;;;;;;;;;;;4972140;28;89453;-67
2023/04/18 09:00:57;;;;;;;;;;;;;;;;;;4974452;28;90843;-64
2023/04/18 09:03:36;;;;;;;;;;;;;;;;;;4975186;28;90687;-63
2023/04/18 09:06:07;;;;;;;;;;;;;;;;;;4979874;28;89291;-63
2023/04/18 09:08:32;;;;;;;;;;;;;;;;;;4976434;28;90561;-63
2023/04/18 09:11:19;;;;;;;;;;;;;;;;;;4976512;28;90003;-63
2023/04/18 09:13:46;;;;;;;;;;;;;;;;;;4973439;28;89373;-62
2023/04/18 09:16:12;;;;;;;;;;;;;;;;;;4977223;28;90633;-64
2023/04/18 09:18:37;;;;;;;;;;;;;;;;;;4973592;28;89591;-64
2023/04/18 09:21:17;;;;;;;;;;;;;;;;;;4978651;28;89594;-64
2023/04/18 09:23:42;;;;;;;;;;;;;;;;;;4968677;28;89249;-63
2023/04/18 09:26:08;;;;;;;;;;;;;;;;;;4975251;28;90252;-62
2023/04/18 09:28:36;;;;;;;;;;;;;;;;;;4975872;28;92464;-62
2023/04/18 09:31:10;;;;;;;;;;;;;;;;;;4977339;28;90180;-65
2023/04/18 09:33:36;;;;;;;;;;;;;;;;;;4978014;28;89577;-64
2023/04/18 09:36:17;;;;;;;;;;;;;;;;;;4974330;28;89442;-62
2023/04/18 09:38:42;;;;;;;;;;;;;;;;;;4975519;28;89974;-62
2023/04/18 09:41:08;;;;;;;;;;;;;;;;;;4992402;28;92345;-63
2023/04/18 09:43:33;;;;;;;;;;;;;;;;;;4971101;28;90140;-69
2023/04/18 09:46:00;;;;;;;;;;;;;;;;;;4977094;28;88993;-66
2023/04/18 09:48:25;;;;;;;;;;;;;;;;;;4978365;28;92675;-69
2023/04/18 09:50:51;;;;;;;;;;;;;;;;;;4977310;28;91686;-67
2023/04/18 09:53:18;;;;;;;;;;;;;;;;;;4982011;28;89860;-66
2023/04/18 09:55:44;;;;;;;;;;;;;;;;;;4988507;28;92248;-67
2023/04/18 09:58:10;;;;;;;;;;;;;;;;;;4982422;28;95266;-66
2023/04/18 10:00:36;;;;;;;;;;;;;;;;;;4972585;28;92217;-64
2023/04/18 10:03:04;;;;;;;;;;;;;;;;;;4966260;28;92447;-69
2023/04/18 10:05:33;;;;;;;;;;;;;;;;;;4973554;28;93748;-64
2023/04/18 10:07:58;;;;;;;;;;;;;;;;;;4970276;28;92831;-66
2023/04/18 10:10:24;;;;;;;;;;;;;;;;;;4973125;28;93501;-65
2023/04/18 10:12:52;;;;;;;;;;;;;;;;;;4980708;28;93033;-66
2023/04/18 10:15:19;;;;;;;;;;;;;;;;;;4990137;28;92473;-67
2023/04/18 10:17:54;;;;;;;;;;;;;;;;;;4976359;28;92624;-65
2023/04/18 10:20:23;;;;;;;;;;;;;;;;;;4981177;28;93447;-64
2023/04/18 10:22:49;;;;;;;;;;;;;;;;;;4979574;28;93529;-66
2023/04/18 10:25:32;;;;;;;;;;;;;;;;;;4978326;28;94854;-66
2023/04/18 10:27:58;;;;;;;;;;;;;;;;;;4973121;28;93655;-73
2023/04/18 10:30:43;;;;;;;;;;;;;;;;;;4978505;28;93840;-64
2023/04/18 10:33:21;;;;;;;;;;;;;;;;;;4973441;28;92724;-65
2023/04/18 10:35:55;;;;;;;;;;;;;;;;;;4976915;28;92233;-65
2023/04/18 10:38:21;;;;;;;;;;;;;;;;;;4978110;28;95082;-66
2023/04/18 10:40:47;;;;;;;;;;;;;;;;;;4976265;28;92661;-67
2023/04/18 10:43:12;;;;;;;;;;;;;;;;;;4980991;28;92888;-68
2023/04/18 10:45:38;;;;;;;;;;;;;;;;;;4976503;28;94331;-70
2023/04/18 10:48:28;;;;;;;;;;;;;;;;;;4980367;28;91794;-67
2023/04/18 10:51:11;;;;;;;;;;;;;;;;;;4978405;28;92797;-65
2023/04/18 10:53:37;;;;;;;;;;;;;;;;;;4981541;28;92151;-66
2023/04/18 10:56:02;;;;;;;;;;;;;;;;;;4977375;28;94084;-67
2023/04/18 10:58:28;;;;;;;;;;;;;;;;;;4971563;28;92587;-68
2023/04/18 11:00:53;;;;;;;;;;;;;;;;;;4972372;28;92802;-66
2023/04/18 11:03:19;;;;;;;;;;;;;;;;;;4980233;28;92614;-63
2023/04/18 11:05:44;;;;;;;;;;;;;;;;;;4979909;28;94296;-67
2023/04/18 11:08:22;;;;;;;;;;;;;;;;;;4973859;28;92453;-65
2023/04/18 11:10:55;;;;;;;;;;;;;;;;;;4973872;28;92974;-68
2023/04/18 11:13:21;;;;;;;;;;;;;;;;;;4973404;28;93049;-70
2023/04/18 11:15:46;;;;;;;;;;;;;;;;;;4971604;28;93178;-69
2023/04/18 11:18:11;;;;;;;;;;;;;;;;;;4969531;28;93501;-70
2023/04/18 11:20:37;;;;;;;;;;;;;;;;;;4977758;28;94649;-71
2023/04/18 11:23:02;;;;;;;;;;;;;;;;;;4971408;28;93126;-70
2023/04/18 11:25:27;;;;;;;;;;;;;;;;;;4973429;28;93815;-69
2023/04/18 11:27:56;;;;;;;;;;;;;;;;;;4977337;28;93804;-68
2023/04/18 11:30:21;;;;;;;;;;;;;;;;;;4974854;28;93756;-67
2023/04/18 11:32:46;;;;;;;;;;;;;;;;;;4971862;28;93244;-69
2023/04/18 11:35:12;;;;;;;;;;;;;;;;;;4972987;28;92842;-64
2023/04/18 11:37:38;;;;;;;;;;;;;;;;;;4977992;28;93545;-70
2023/04/18 11:40:06;;;;;;;;;;;;;;;;;;4968896;28;92927;-64
2023/04/18 11:42:32;;;;;;;;;;;;;;;;;;4975313;28;92739;-63
2023/04/18 11:44:57;;;;;;;;;;;;;;;;;;4977826;28;93882;-63
2023/04/18 11:47:32;;;;;;;;;;;;;;;;;;4974693;28;92864;-65
2023/04/18 11:49:59;;;;;;;;;;;;;;;;;;4972136;28;92709;-64
2023/04/18 11:52:28;;;;;;;;;;;;;;;;;;4977445;28;94363;-67
2023/04/18 11:54:54;;;;;;;;;;;;;;;;;;4972306;28;92701;-62
2023/04/18 11:57:27;;;;;;;;;;;;;;;;;;4972204;28;93750;-64
2023/04/18 11:59:56;;;;;;;;;;;;;;;;;;4972954;28;92455;-67
2023/04/18 12:02:22;;;;;;;;;;;;;;;;;;4974058;28;92683;-71
2023/04/18 12:04:57;;;;;;;;;;;;;;;;;;4970815;28;92799;-67
2023/04/18 12:07:49;;;;;;;;;;;;;;;;;;4973361;28;92547;-65
2023/04/18 12:10:23;;;;;;;;;;;;;;;;;;4975039;28;93903;-72
2023/04/18 12:12:49;;;;;;;;;;;;;;;;;;4975175;28;94072;-68
2023/04/18 12:15:15;;;;;;;;;;;;;;;;;;4972018;28;93549;-66
2023/04/18 12:17:44;;;;;;;;;;;;;;;;;;4972250;28;92686;-71
2023/04/18 12:20:10;;;;;;;;;;;;;;;;;;4976478;28;92833;-65
2023/04/18 12:22:40;;;;;;;;;;;;;;;;;;4970770;28;92247;-70
2023/04/18 12:25:08;;;;;;;;;;;;;;;;;;4970623;28;94405;-69
2023/04/18 12:27:51;;;;;;;;;;;;;;;;;;4989646;28;93002;-70
2023/04/18 12:30:18;;;;;;;;;;;;;;;;;;4975481;28;93661;-68
2023/04/18 12:32:44;;;;;;;;;;;;;;;;;;4979419;28;93485;-67
2023/04/18 12:35:10;;;;;;;;;;;;;;;;;;4968140;28;94028;-70
2023/04/18 12:37:35;;;;;;;;;;;;;;;;;;4977878;28;93211;-72
2023/04/18 12:40:00;;;;;;;;;;;;;;;;;;4978836;28;92973;-72
2023/04/18 12:42:25;;;;;;;;;;;;;;;;;;4976292;28;92663;-70
2023/04/18 12:44:50;;;;;;;;;;;;;;;;;;4977749;28;95080;-70
2023/04/18 12:47:16;;;;;;;;;;;;;;;;;;4969488;28;93155;-67
2023/04/18 12:49:41;;;;;;;;;;;;;;;;;;4969172;28;92340;-70
2023/04/18 12:52:06;;;;;;;;;;;;;;;;;;4976379;28;92693;-72
2023/04/18 12:54:32;;;;;;;;;;;;;;;;;;4977642;28;93969;-74
2023/04/18 12:56:58;;;;;;;;;;;;;;;;;;4976335;28;94215;-69
2023/04/18 12:59:23;;;;;;;;;;;;;;;;;;4977894;28;93997;-71
2023/04/18 13:01:48;;;;;;;;;;;;;;;;;;4977860;28;93338;-70
2023/04/18 13:04:13;;;;;;;;;;;;;;;;;;4977495;28;93210;-69
2023/04/18 13:06:39;;;;;;;;;;;;;;;;;;4972369;28;92690;-73
2023/04/18 13:09:04;;;;;;;;;;;;;;;;;;4974784;28;92936;-71
2023/04/18 13:11:29;;;;;;;;;;;;;;;;;;4973498;28;92528;-66
2023/04/18 13:13:54;;;;;;;;;;;;;;;;;;4972413;28;92196;-72
2023/04/18 13:16:20;;;;;;;;;;;;;;;;;;4972235;28;92153;-66
2023/04/18 13:18:45;;;;;;;;;;;;;;;;;;4970210;28;93713;-69
2023/04/18 13:21:10;;;;;;;;;;;;;;;;;;4976758;28;92700;-71
2023/04/18 13:23:35;;;;;;;;;;;;;;;;;;4969278;28;93330;-73
2023/04/18 13:26:01;;;;;;;;;;;;;;;;;;4971625;28;93176;-67
2023/04/18 13:28:26;;;;;;;;;;;;;;;;;;4976850;28;93205;-73
2023/04/18 13:30:51;;;;;;;;;;;;;;;;;;4976092;28;92558;-72
2023/04/18 13:33:17;;;;;;;;;;;;;;;;;;4973739;28;93421;-68
2023/04/18 13:35:42;;;;;;;;;;;;;;;;;;4973434;28;93156;-70
2023/04/18 13:38:07;;;;;;;;;;;;;;;;;;4971115;28;92821;-69
2023/04/18 13:40:32;;;;;;;;;;;;;;;;;;4973358;28;91992;-74
2023/04/18 13:42:57;;;;;;;;;;;;;;;;;;4973956;28;93763;-71
2023/04/18 13:45:23;;;;;;;;;;;;;;;;;;4973097;28;92945;-71
2023/04/18 13:47:48;;;;;;;;;;;;;;;;;;4976082;28;93243;-71
2023/04/18 13:50:13;;;;;;;;;;;;;;;;;;4972938;28;93125;-67
2023/04/18 13:52:38;;;;;;;;;;;;;;;;;;4972106;28;92924;-68
2023/04/18 13:55:04;;;;;;;;;;;;;;;;;;4976381;28;93058;-65
2023/04/18 13:57:30;;;;;;;;;;;;;;;;;;4979755;28;92813;-65
2023/04/18 13:59:56;;;;;;;;;;;;;;;;;;4976651;28;92830;-66
2023/04/18 14:02:21;;;;;;;;;;;;;;;;;;4976821;28;93315;-70
2023/04/18 14:04:46;;;;;;;;;;;;;;;;;;4972931;28;92550;-66
2023/04/18 14:07:11;;;;;;;;;;;;;;;;;;4976585;28;92772;-67
2023/04/18 14:09:37;;;;;;;;;;;;;;;;;;4977554;28;92694;-66
2023/04/18 14:12:02;;;;;;;;;;;;;;;;;;4975997;28;93898;-68
2023/04/18 14:14:28;;;;;;;;;;;;;;;;;;4973607;28;92249;-69
2023/04/18 14:16:53;;;;;;;;;;;;;;;;;;4974112;28;94254;-73
2023/04/18 14:19:18;;;;;;;;;;;;;;;;;;4982915;28;93280;-62
2023/04/18 14:21:44;;;;;;;;;;;;;;;;;;4977095;28;92803;-70
2023/04/18 14:24:10;;;;;;;;;;;;;;;;;;4978568;28;92674;-69
2023/04/18 14:26:36;;;;;;;;;;;;;;;;;;4975723;28;92546;-73
2023/04/18 14:29:02;;;;;;;;;;;;;;;;;;4971548;28;92399;-69
2023/04/18 14:31:28;;;;;;;;;;;;;;;;;;4972481;28;92933;-68
2023/04/18 14:33:53;;;;;;;;;;;;;;;;;;4970217;28;92310;-66
2023/04/18 14:36:18;;;;;;;;;;;;;;;;;;4975258;28;93641;-71
2023/04/18 14:38:45;;;;;;;;;;;;;;;;;;4971754;28;93781;-70
2023/04/18 14:41:11;;;;;;;;;;;;;;;;;;4971283;28;92308;-69
2023/04/18 14:43:36;;;;;;;;;;;;;;;;;;4974644;28;94100;-73
2023/04/18 14:46:01;;;;;;;;;;;;;;;;;;4976020;28;92896;-65
2023/04/18 14:48:26;;;;;;;;;;;;;;;;;;4980979;28;93466;-72
2023/04/18 14:50:55;;;;;;;;;;;;;;;;;;4983190;28;93834;-66
2023/04/18 14:53:20;;;;;;;;;;;;;;;;;;4982051;28;92283;-70
2023/04/18 14:55:46;;;;;;;;;;;;;;;;;;4982962;28;92794;-73
2023/04/18 14:58:11;;;;;;;;;;;;;;;;;;4982924;28;92749;-67
2023/04/18 15:00:36;;;;;;;;;;;;;;;;;;4981778;28;93876;-72
2023/04/18 15:03:02;;;;;;;;;;;;;;;;;;4986502;28;93851;-67
2023/04/18 15:05:27;;;;;;;;;;;;;;;;;;4982994;28;92930;-70
2023/04/18 15:07:52;;;;;;;;;;;;;;;;;;4982581;28;92666;-72
2023/04/18 15:10:18;;;;;;;;;;;;;;;;;;4982219;28;92564;-73
2023/04/18 15:12:45;;;;;;;;;;;;;;;;;;4982452;28;92689;-73
2023/04/18 15:15:10;;;;;;;;;;;;;;;;;;4981559;28;93282;-71
2023/04/18 15:17:36;;;;;;;;;;;;;;;;;;4983100;28;91918;-73
2023/04/18 15:20:01;;;;;;;;;;;;;;;;;;4978391;28;93184;-74
2023/04/18 15:22:26;;;;;;;;;;;;;;;;;;4982833;28;93705;-73
2023/04/18 15:24:51;;;;;;;;;;;;;;;;;;4983569;28;94399;-72
2023/04/18 15:27:17;;;;;;;;;;;;;;;;;;4981153;28;92899;-72
2023/04/18 15:29:42;;;;;;;;;;;;;;;;;;4980450;28;93193;-69
2023/04/18 15:32:08;;;;;;;;;;;;;;;;;;4981412;28;94994;-71
2023/04/18 15:34:33;;;;;;;;;;;;;;;;;;4982129;28;93655;-70
2023/04/18 15:36:59;;;;;;;;;;;;;;;;;;4980936;28;92899;-73
2023/04/18 15:39:24;;;;;;;;;;;;;;;;;;4979622;28;92900;-70
2023/04/18 15:41:55;;;;;;;;;;;;;;;;;;4983181;28;93560;-71
2023/04/18 15:44:21;;;;;;;;;;;;;;;;;;4981039;28;93616;-71
2023/04/18 15:46:47;;;;;;;;;;;;;;;;;;4984067;28;92952;-69
2023/04/18 15:49:12;;;;;;;;;;;;;;;;;;4980280;28;94243;-70
2023/04/18 15:51:37;;;;;;;;;;;;;;;;;;4981797;28;92800;-71
2023/04/18 15:54:02;;;;;;;;;;;;;;;;;;4982334;28;92768;-73
2023/04/18 15:56:28;;;;;;;;;;;;;;;;;;4981009;28;92775;-73
2023/04/18 15:58:55;;;;;;;;;;;;;;;;;;4982235;28;94004;-68
2023/04/18 16:01:21;;;;;;;;;;;;;;;;;;4980261;28;94947;-70
2023/04/18 16:03:46;;;;;;;;;;;;;;;;;;4980769;28;93750;-68
2023/04/18 16:06:12;;;;;;;;;;;;;;;;;;4983179;28;91952;-69
2023/04/18 16:08:37;;;;;;;;;;;;;;;;;;4978764;28;92863;-71
2023/04/18 16:11:03;;;;;;;;;;;;;;;;;;4980004;28;93741;-74
2023/04/18 16:13:29;;;;;;;;;;;;;;;;;;4973431;28;93667;-75
2023/04/18 16:15:54;;;;;;;;;;;;;;;;;;4979291;28;94230;-73
2023/04/18 16:18:19;;;;;;;;;;;;;;;;;;4980032;28;92311;-68
2023/04/18 16:20:45;;;;;;;;;;;;;;;;;;4981679;28;93016;-73
2023/04/18 16:23:11;;;;;;;;;;;;;;;;;;4979318;28;94300;-69
2023/04/18 16:25:36;;;;;;;;;;;;;;;;;;4971312;28;102435;-68
2023/04/18 16:28:01;;;;;;;;;;;;;;;;;;4964871;28;92712;-68
2023/04/18 16:30:27;;;;;;;;;;;;;;;;;;4956703;28;93805;-71
2023/04/18 16:32:53;;;;;;;;;;;;;;;;;;4967774;28;94321;-70
2023/04/18 16:35:18;;;;;;;;;;;;;;;;;;4970801;28;93887;-77
2023/04/18 16:37:43;;;;;;;;;;;;;;;;;;4970540;28;95339;-75
2023/04/18 16:40:08;;;;;;;;;;;;;;;;;;4980153;28;94226;-72